Radford, Virginia
Current Conditions -  °F | °C
As of 10:35 AM on Saturday 20 Dec 2014 (Local Time) from KPSK Reporting Station
Overcast Overcast  
Wind Chill: 32°   Ceiling: 2800
Heat Index: 32°   Visibility: 10mi
Dew Point: 29°   Wind: 0mph
Humidity: 91%   Direction: NA
Pressure: 30.23"   Gusts: NA
Location:  37.12°N, 80.59°W
Report Text: KPSK 201535Z AUTO 00000KT 10SM OVC028 00/M01 A3023 RMK AO2 T10011014
Loading
Personal Weather Stations






























Interactive Weather Map New forecast layout! Learn more

10-Day Weather Forecast

Advertisements
Track Severe Weather on mobile